sensor_id;sensor_type;location;lat;lon;timestamp;temperature;humidity
17992;DHT22;9121;50.926;5.340;2022-10-16T00:00:37;14.80;99.90
17992;DHT22;9121;50.926;5.340;2022-10-16T00:03:06;14.80;99.90
17992;DHT22;9121;50.926;5.340;2022-10-16T00:05:38;14.80;99.90
17992;DHT22;9121;50.926;5.340;2022-10-16T00:08:06;14.80;99.90
17992;DHT22;9121;50.926;5.340;2022-10-16T00:10:33;14.80;99.90
17992;DHT22;9121;50.926;5.340;2022-10-16T00:13:00;14.70;99.90
17992;DHT22;9121;50.926;5.340;2022-10-16T00:15:27;14.80;99.90
17992;DHT22;9121;50.926;5.340;2022-10-16T00:17:54;14.70;99.90
17992;DHT22;9121;50.926;5.340;2022-10-16T00:20:22;14.70;99.90
17992;DHT22;9121;50.926;5.340;2022-10-16T00:22:49;14.70;99.90
17992;DHT22;9121;50.926;5.340;2022-10-16T00:25:16;14.70;99.90
17992;DHT22;9121;50.926;5.340;2022-10-16T00:27:43;14.60;99.90
17992;DHT22;9121;50.926;5.340;2022-10-16T00:30:11;14.60;99.90
17992;DHT22;9121;50.926;5.340;2022-10-16T00:32:38;14.60;99.90
17992;DHT22;9121;50.926;5.340;2022-10-16T00:35:05;14.60;99.90
17992;DHT22;9121;50.926;5.340;2022-10-16T00:37:34;14.60;99.90
17992;DHT22;9121;50.926;5.340;2022-10-16T00:40:01;14.60;99.90
17992;DHT22;9121;50.926;5.340;2022-10-16T00:42:27;14.60;99.90
17992;DHT22;9121;50.926;5.340;2022-10-16T00:44:56;14.60;99.90
17992;DHT22;9121;50.926;5.340;2022-10-16T00:47:27;14.60;99.90
17992;DHT22;9121;50.926;5.340;2022-10-16T00:49:59;14.50;99.90
17992;DHT22;9121;50.926;5.340;2022-10-16T00:52:28;14.50;99.90
17992;DHT22;9121;50.926;5.340;2022-10-16T00:54:57;14.50;99.90
17992;DHT22;9121;50.926;5.340;2022-10-16T00:57:25;14.50;99.90
17992;DHT22;9121;50.926;5.340;2022-10-16T00:59:52;14.50;99.90
17992;DHT22;9121;50.926;5.340;2022-10-16T01:02:20;14.50;99.90
17992;DHT22;9121;50.926;5.340;2022-10-16T01:04:49;14.50;99.90
17992;DHT22;9121;50.926;5.340;2022-10-16T01:07:29;14.50;99.90
17992;DHT22;9121;50.926;5.340;2022-10-16T01:10:07;14.40;99.90
17992;DHT22;9121;50.926;5.340;2022-10-16T01:12:40;14.40;99.90
17992;DHT22;9121;50.926;5.340;2022-10-16T01:15:14;14.40;99.90
17992;DHT22;9121;50.926;5.340;2022-10-16T01:17:48;14.40;99.90
17992;DHT22;9121;50.926;5.340;2022-10-16T01:20:23;14.40;99.90
17992;DHT22;9121;50.926;5.340;2022-10-16T01:23:03;14.40;99.90
17992;DHT22;9121;50.926;5.340;2022-10-16T01:25:42;14.30;99.90
17992;DHT22;9121;50.926;5.340;2022-10-16T01:28:13;14.30;99.90
17992;DHT22;9121;50.926;5.340;2022-10-16T01:30:42;14.30;99.90
17992;DHT22;9121;50.926;5.340;2022-10-16T01:33:16;14.30;99.90
17992;DHT22;9121;50.926;5.340;2022-10-16T01:35:47;14.30;99.90
17992;DHT22;9121;50.926;5.340;2022-10-16T01:38:19;14.30;99.90
17992;DHT22;9121;50.926;5.340;2022-10-16T01:40:50;14.30;99.90
17992;DHT22;9121;50.926;5.340;2022-10-16T01:43:22;14.30;99.90
17992;DHT22;9121;50.926;5.340;2022-10-16T01:45:52;14.20;99.90
17992;DHT22;9121;50.926;5.340;2022-10-16T01:48:20;14.30;99.90
17992;DHT22;9121;50.926;5.340;2022-10-16T01:50:54;14.30;99.90
17992;DHT22;9121;50.926;5.340;2022-10-16T01:53:22;14.30;99.90
17992;DHT22;9121;50.926;5.340;2022-10-16T01:55:52;14.20;99.90
17992;DHT22;9121;50.926;5.340;2022-10-16T01:58:23;14.20;99.90
17992;DHT22;9121;50.926;5.340;2022-10-16T02:00:52;14.20;99.90
17992;DHT22;9121;50.926;5.340;2022-10-16T02:03:20;14.20;99.90
17992;DHT22;9121;50.926;5.340;2022-10-16T02:05:51;14.20;99.90
17992;DHT22;9121;50.926;5.340;2022-10-16T02:08:20;14.20;99.90
17992;DHT22;9121;50.926;5.340;2022-10-16T02:10:47;14.20;99.90
17992;DHT22;9121;50.926;5.340;2022-10-16T02:13:17;14.20;99.90
17992;DHT22;9121;50.926;5.340;2022-10-16T02:15:47;14.20;99.90
17992;DHT22;9121;50.926;5.340;2022-10-16T02:18:14;14.20;99.90
17992;DHT22;9121;50.926;5.340;2022-10-16T02:20:50;14.20;99.90
17992;DHT22;9121;50.926;5.340;2022-10-16T02:23:21;14.20;99.90
17992;DHT22;9121;50.926;5.340;2022-10-16T02:25:50;14.20;99.90
17992;DHT22;9121;50.926;5.340;2022-10-16T02:28:23;14.20;99.90
17992;DHT22;9121;50.926;5.340;2022-10-16T02:30:56;14.30;99.90
17992;DHT22;9121;50.926;5.340;2022-10-16T02:33:26;14.20;99.90
17992;DHT22;9121;50.926;5.340;2022-10-16T02:35:54;14.20;99.90
17992;DHT22;9121;50.926;5.340;2022-10-16T02:38:22;14.20;99.90
17992;DHT22;9121;50.926;5.340;2022-10-16T02:40:50;14.30;99.90
17992;DHT22;9121;50.926;5.340;2022-10-16T02:43:17;14.20;99.90
17992;DHT22;9121;50.926;5.340;2022-10-16T02:45:45;14.20;99.90
17992;DHT22;9121;50.926;5.340;2022-10-16T02:48:13;14.20;99.90
17992;DHT22;9121;50.926;5.340;2022-10-16T02:50:40;14.20;99.90
17992;DHT22;9121;50.926;5.340;2022-10-16T02:53:07;14.20;99.90
17992;DHT22;9121;50.926;5.340;2022-10-16T02:55:34;14.20;99.90
17992;DHT22;9121;50.926;5.340;2022-10-16T02:58:01;14.20;99.90
17992;DHT22;9121;50.926;5.340;2022-10-16T03:00:28;14.20;99.90
17992;DHT22;9121;50.926;5.340;2022-10-16T03:02:55;14.20;99.90
17992;DHT22;9121;50.926;5.340;2022-10-16T03:05:23;14.20;99.90
17992;DHT22;9121;50.926;5.340;2022-10-16T03:07:50;14.20;99.90
17992;DHT22;9121;50.926;5.340;2022-10-16T03:10:18;14.20;99.90
17992;DHT22;9121;50.926;5.340;2022-10-16T03:12:45;14.20;99.90
17992;DHT22;9121;50.926;5.340;2022-10-16T03:15:12;14.20;99.90
17992;DHT22;9121;50.926;5.340;2022-10-16T03:17:39;14.20;99.90
17992;DHT22;9121;50.926;5.340;2022-10-16T03:20:06;14.20;99.90
17992;DHT22;9121;50.926;5.340;2022-10-16T03:22:35;14.20;99.90
17992;DHT22;9121;50.926;5.340;2022-10-16T03:25:02;14.20;99.90
17992;DHT22;9121;50.926;5.340;2022-10-16T03:27:29;14.20;99.90
17992;DHT22;9121;50.926;5.340;2022-10-16T03:29:56;14.10;99.90
17992;DHT22;9121;50.926;5.340;2022-10-16T03:32:23;14.10;99.90
17992;DHT22;9121;50.926;5.340;2022-10-16T03:34:50;14.10;99.90
17992;DHT22;9121;50.926;5.340;2022-10-16T03:37:19;14.10;99.90
17992;DHT22;9121;50.926;5.340;2022-10-16T03:39:48;14.10;99.90
17992;DHT22;9121;50.926;5.340;2022-10-16T03:42:14;14.10;99.90
17992;DHT22;9121;50.926;5.340;2022-10-16T03:44:41;14.00;99.90
17992;DHT22;9121;50.926;5.340;2022-10-16T03:47:08;14.00;99.90
17992;DHT22;9121;50.926;5.340;2022-10-16T03:49:35;14.00;99.90
17992;DHT22;9121;50.926;5.340;2022-10-16T03:52:02;14.00;99.90
17992;DHT22;9121;50.926;5.340;2022-10-16T03:54:29;14.10;99.90
17992;DHT22;9121;50.926;5.340;2022-10-16T03:56:57;14.10;99.90
17992;DHT22;9121;50.926;5.340;2022-10-16T03:59:24;14.10;99.90
17992;DHT22;9121;50.926;5.340;2022-10-16T04:01:51;14.00;99.90
17992;DHT22;9121;50.926;5.340;2022-10-16T04:04:18;14.00;99.90
17992;DHT22;9121;50.926;5.340;2022-10-16T04:06:45;14.00;99.90
17992;DHT22;9121;50.926;5.340;2022-10-16T04:09:12;14.00;99.90
17992;DHT22;9121;50.926;5.340;2022-10-16T04:11:39;14.00;99.90
17992;DHT22;9121;50.926;5.340;2022-10-16T04:14:07;13.90;99.90
17992;DHT22;9121;50.926;5.340;2022-10-16T04:16:34;13.90;99.90
17992;DHT22;9121;50.926;5.340;2022-10-16T04:19:01;13.90;99.90
17992;DHT22;9121;50.926;5.340;2022-10-16T04:21:28;13.90;99.90
17992;DHT22;9121;50.926;5.340;2022-10-16T04:23:55;13.90;99.90
17992;DHT22;9121;50.926;5.340;2022-10-16T04:26:22;13.90;99.90
17992;DHT22;9121;50.926;5.340;2022-10-16T04:28:48;13.90;99.90
17992;DHT22;9121;50.926;5.340;2022-10-16T04:31:17;13.90;99.90
17992;DHT22;9121;50.926;5.340;2022-10-16T04:33:44;13.90;99.90
17992;DHT22;9121;50.926;5.340;2022-10-16T04:36:11;13.90;99.90
17992;DHT22;9121;50.926;5.340;2022-10-16T04:38:38;13.90;99.90
17992;DHT22;9121;50.926;5.340;2022-10-16T04:41:06;14.00;99.90
17992;DHT22;9121;50.926;5.340;2022-10-16T04:43:33;14.00;99.90
17992;DHT22;9121;50.926;5.340;2022-10-16T04:46:00;14.00;99.90
17992;DHT22;9121;50.926;5.340;2022-10-16T04:48:29;14.00;99.90
17992;DHT22;9121;50.926;5.340;2022-10-16T04:50:55;14.00;99.90
17992;DHT22;9121;50.926;5.340;2022-10-16T04:53:22;13.90;99.90
17992;DHT22;9121;50.926;5.340;2022-10-16T04:55:49;13.90;99.90
17992;DHT22;9121;50.926;5.340;2022-10-16T04:58:16;14.00;99.90
17992;DHT22;9121;50.926;5.340;2022-10-16T05:00:44;14.00;99.90
17992;DHT22;9121;50.926;5.340;2022-10-16T05:03:11;14.00;99.90
17992;DHT22;9121;50.926;5.340;2022-10-16T05:05:44;13.90;99.90
17992;DHT22;9121;50.926;5.340;2022-10-16T05:08:11;14.00;99.90
17992;DHT22;9121;50.926;5.340;2022-10-16T05:10:38;13.90;99.90
17992;DHT22;9121;50.926;5.340;2022-10-16T05:13:05;13.90;99.90
17992;DHT22;9121;50.926;5.340;2022-10-16T05:15:32;13.90;99.90
17992;DHT22;9121;50.926;5.340;2022-10-16T05:17:58;13.90;99.90
17992;DHT22;9121;50.926;5.340;2022-10-16T05:20:25;13.90;99.90
17992;DHT22;9121;50.926;5.340;2022-10-16T05:22:54;13.90;99.90
17992;DHT22;9121;50.926;5.340;2022-10-16T05:25:21;13.80;99.90
17992;DHT22;9121;50.926;5.340;2022-10-16T05:27:48;13.80;99.90
17992;DHT22;9121;50.926;5.340;2022-10-16T05:30:15;13.90;99.90
17992;DHT22;9121;50.926;5.340;2022-10-16T05:32:46;13.80;99.90
17992;DHT22;9121;50.926;5.340;2022-10-16T05:35:13;13.80;99.90
17992;DHT22;9121;50.926;5.340;2022-10-16T05:37:40;13.80;99.90
17992;DHT22;9121;50.926;5.340;2022-10-16T05:40:09;13.90;99.90
17992;DHT22;9121;50.926;5.340;2022-10-16T05:42:36;13.90;99.90
17992;DHT22;9121;50.926;5.340;2022-10-16T05:45:04;13.90;99.90
17992;DHT22;9121;50.926;5.340;2022-10-16T05:47:31;13.80;99.90
17992;DHT22;9121;50.926;5.340;2022-10-16T05:49:58;13.80;99.90
17992;DHT22;9121;50.926;5.340;2022-10-16T05:52:26;13.80;99.90
17992;DHT22;9121;50.926;5.340;2022-10-16T05:54:53;13.80;99.90
17992;DHT22;9121;50.926;5.340;2022-10-16T05:57:21;13.80;99.90
17992;DHT22;9121;50.926;5.340;2022-10-16T05:59:48;13.80;99.90
17992;DHT22;9121;50.926;5.340;2022-10-16T06:02:15;13.80;99.90
17992;DHT22;9121;50.926;5.340;2022-10-16T06:04:42;13.80;99.90
17992;DHT22;9121;50.926;5.340;2022-10-16T06:07:09;13.80;99.90
17992;DHT22;9121;50.926;5.340;2022-10-16T06:09:36;13.70;99.90
17992;DHT22;9121;50.926;5.340;2022-10-16T06:12:03;13.70;99.90
17992;DHT22;9121;50.926;5.340;2022-10-16T06:14:31;13.70;99.90
17992;DHT22;9121;50.926;5.340;2022-10-16T06:16:58;13.70;99.90
17992;DHT22;9121;50.926;5.340;2022-10-16T06:19:25;13.70;99.90
17992;DHT22;9121;50.926;5.340;2022-10-16T06:21:52;13.70;99.90
17992;DHT22;9121;50.926;5.340;2022-10-16T06:24:19;13.70;99.90
17992;DHT22;9121;50.926;5.340;2022-10-16T06:26:46;13.70;99.90
17992;DHT22;9121;50.926;5.340;2022-10-16T06:29:13;13.70;99.90
17992;DHT22;9121;50.926;5.340;2022-10-16T06:31:41;13.70;99.90
17992;DHT22;9121;50.926;5.340;2022-10-16T06:34:09;13.70;99.90
17992;DHT22;9121;50.926;5.340;2022-10-16T06:36:37;13.70;99.90
17992;DHT22;9121;50.926;5.340;2022-10-16T06:39:04;13.70;99.90
17992;DHT22;9121;50.926;5.340;2022-10-16T06:41:33;13.70;99.90
17992;DHT22;9121;50.926;5.340;2022-10-16T06:44:00;13.70;99.90
17992;DHT22;9121;50.926;5.340;2022-10-16T06:46:27;13.70;99.90
17992;DHT22;9121;50.926;5.340;2022-10-16T06:48:55;13.70;99.90
17992;DHT22;9121;50.926;5.340;2022-10-16T06:51:23;13.70;99.90
17992;DHT22;9121;50.926;5.340;2022-10-16T06:53:53;13.70;99.90
17992;DHT22;9121;50.926;5.340;2022-10-16T06:56:24;13.70;99.90
17992;DHT22;9121;50.926;5.340;2022-10-16T06:58:51;13.70;99.90
17992;DHT22;9121;50.926;5.340;2022-10-16T07:01:20;13.70;99.90
17992;DHT22;9121;50.926;5.340;2022-10-16T07:03:48;13.70;99.90
17992;DHT22;9121;50.926;5.340;2022-10-16T07:06:18;13.70;99.90
17992;DHT22;9121;50.926;5.340;2022-10-16T07:08:46;13.80;99.90
17992;DHT22;9121;50.926;5.340;2022-10-16T07:11:15;13.80;99.90
17992;DHT22;9121;50.926;5.340;2022-10-16T07:13:43;13.90;99.90
17992;DHT22;9121;50.926;5.340;2022-10-16T07:16:12;14.00;99.90
17992;DHT22;9121;50.926;5.340;2022-10-16T07:18:42;14.10;99.90
17992;DHT22;9121;50.926;5.340;2022-10-16T07:21:12;14.30;99.90
17992;DHT22;9121;50.926;5.340;2022-10-16T07:23:41;14.30;99.90
17992;DHT22;9121;50.926;5.340;2022-10-16T07:26:08;14.30;99.90
17992;DHT22;9121;50.926;5.340;2022-10-16T07:28:35;14.30;99.90
17992;DHT22;9121;50.926;5.340;2022-10-16T07:31:03;14.40;99.90
17992;DHT22;9121;50.926;5.340;2022-10-16T07:33:31;14.50;99.90
17992;DHT22;9121;50.926;5.340;2022-10-16T07:35:58;14.50;99.90
17992;DHT22;9121;50.926;5.340;2022-10-16T07:38:25;14.60;99.90
17992;DHT22;9121;50.926;5.340;2022-10-16T07:40:58;14.60;99.90
17992;DHT22;9121;50.926;5.340;2022-10-16T07:43:25;14.70;99.90
17992;DHT22;9121;50.926;5.340;2022-10-16T07:45:53;14.70;99.90
17992;DHT22;9121;50.926;5.340;2022-10-16T07:48:21;14.80;99.90
17992;DHT22;9121;50.926;5.340;2022-10-16T07:50:48;14.90;99.90
17992;DHT22;9121;50.926;5.340;2022-10-16T07:53:15;15.00;99.90
17992;DHT22;9121;50.926;5.340;2022-10-16T07:55:42;15.10;99.90
17992;DHT22;9121;50.926;5.340;2022-10-16T07:58:11;15.10;99.90
17992;DHT22;9121;50.926;5.340;2022-10-16T08:00:38;15.20;99.90
17992;DHT22;9121;50.926;5.340;2022-10-16T08:03:04;15.30;99.90
17992;DHT22;9121;50.926;5.340;2022-10-16T08:05:32;15.30;99.90
17992;DHT22;9121;50.926;5.340;2022-10-16T08:08:00;15.50;99.90
17992;DHT22;9121;50.926;5.340;2022-10-16T08:10:29;15.60;99.90
17992;DHT22;9121;50.926;5.340;2022-10-16T08:12:57;15.60;99.90
17992;DHT22;9121;50.926;5.340;2022-10-16T08:15:25;15.80;99.90
17992;DHT22;9121;50.926;5.340;2022-10-16T08:18:00;15.90;99.90
17992;DHT22;9121;50.926;5.340;2022-10-16T08:20:28;15.80;99.90
17992;DHT22;9121;50.926;5.340;2022-10-16T08:22:56;15.90;99.90
17992;DHT22;9121;50.926;5.340;2022-10-16T08:25:23;15.90;99.90
17992;DHT22;9121;50.926;5.340;2022-10-16T08:27:51;16.10;99.90
17992;DHT22;9121;50.926;5.340;2022-10-16T08:30:19;16.10;99.90
17992;DHT22;9121;50.926;5.340;2022-10-16T08:32:48;16.20;99.90
17992;DHT22;9121;50.926;5.340;2022-10-16T08:35:16;16.20;99.90
17992;DHT22;9121;50.926;5.340;2022-10-16T08:37:43;16.20;99.90
17992;DHT22;9121;50.926;5.340;2022-10-16T08:40:17;16.30;99.90
17992;DHT22;9121;50.926;5.340;2022-10-16T08:42:57;16.40;99.90
17992;DHT22;9121;50.926;5.340;2022-10-16T08:45:39;16.50;99.90
17992;DHT22;9121;50.926;5.340;2022-10-16T08:48:18;16.60;99.90
17992;DHT22;9121;50.926;5.340;2022-10-16T08:50:48;16.70;99.90
17992;DHT22;9121;50.926;5.340;2022-10-16T08:53:20;17.00;99.90
17992;DHT22;9121;50.926;5.340;2022-10-16T08:55:50;17.10;99.90
17992;DHT22;9121;50.926;5.340;2022-10-16T08:58:19;17.10;99.90
17992;DHT22;9121;50.926;5.340;2022-10-16T09:00:48;17.00;99.90
17992;DHT22;9121;50.926;5.340;2022-10-16T09:03:33;16.80;99.90
17992;DHT22;9121;50.926;5.340;2022-10-16T09:06:17;16.80;99.90
17992;DHT22;9121;50.926;5.340;2022-10-16T09:08:54;16.80;99.90
17992;DHT22;9121;50.926;5.340;2022-10-16T09:11:33;16.90;99.90
17992;DHT22;9121;50.926;5.340;2022-10-16T09:14:07;16.70;99.90
17992;DHT22;9121;50.926;5.340;2022-10-16T09:16:48;16.70;99.90
17992;DHT22;9121;50.926;5.340;2022-10-16T09:19:25;16.80;99.90
17992;DHT22;9121;50.926;5.340;2022-10-16T09:21:54;16.90;99.90
17992;DHT22;9121;50.926;5.340;2022-10-16T09:24:25;16.90;99.90
17992;DHT22;9121;50.926;5.340;2022-10-16T09:26:52;17.00;99.90
17992;DHT22;9121;50.926;5.340;2022-10-16T09:29:21;17.00;99.90
17992;DHT22;9121;50.926;5.340;2022-10-16T09:31:51;17.10;99.90
17992;DHT22;9121;50.926;5.340;2022-10-16T09:34:25;17.10;99.90
17992;DHT22;9121;50.926;5.340;2022-10-16T09:36:54;17.20;99.90
17992;DHT22;9121;50.926;5.340;2022-10-16T09:39:22;17.20;99.90
17992;DHT22;9121;50.926;5.340;2022-10-16T09:41:50;17.30;99.90
17992;DHT22;9121;50.926;5.340;2022-10-16T09:44:21;17.30;99.90
17992;DHT22;9121;50.926;5.340;2022-10-16T09:46:59;17.30;99.90
17992;DHT22;9121;50.926;5.340;2022-10-16T09:49:28;17.30;99.90
17992;DHT22;9121;50.926;5.340;2022-10-16T09:52:04;17.30;99.90
17992;DHT22;9121;50.926;5.340;2022-10-16T09:54:31;17.40;99.90
17992;DHT22;9121;50.926;5.340;2022-10-16T09:57:05;17.50;99.90
17992;DHT22;9121;50.926;5.340;2022-10-16T09:59:32;17.40;99.90
17992;DHT22;9121;50.926;5.340;2022-10-16T10:02:03;17.50;99.90
17992;DHT22;9121;50.926;5.340;2022-10-16T10:04:41;17.50;99.90
17992;DHT22;9121;50.926;5.340;2022-10-16T10:07:18;17.60;99.90
17992;DHT22;9121;50.926;5.340;2022-10-16T10:09:47;17.70;99.90
17992;DHT22;9121;50.926;5.340;2022-10-16T10:12:20;17.80;99.90
17992;DHT22;9121;50.926;5.340;2022-10-16T10:14:48;17.80;99.90
17992;DHT22;9121;50.926;5.340;2022-10-16T10:17:18;17.90;99.90
17992;DHT22;9121;50.926;5.340;2022-10-16T10:19:50;17.90;99.90
17992;DHT22;9121;50.926;5.340;2022-10-16T10:22:27;18.00;99.90
17992;DHT22;9121;50.926;5.340;2022-10-16T10:25:15;18.00;99.90
17992;DHT22;9121;50.926;5.340;2022-10-16T10:27:58;18.10;99.90
17992;DHT22;9121;50.926;5.340;2022-10-16T10:30:32;18.10;99.90
17992;DHT22;9121;50.926;5.340;2022-10-16T10:33:17;18.10;99.90
17992;DHT22;9121;50.926;5.340;2022-10-16T10:35:55;18.00;99.90
17992;DHT22;9121;50.926;5.340;2022-10-16T10:38:30;18.00;99.90
17992;DHT22;9121;50.926;5.340;2022-10-16T10:41:09;18.00;99.90
17992;DHT22;9121;50.926;5.340;2022-10-16T10:43:49;18.10;99.90
17992;DHT22;9121;50.926;5.340;2022-10-16T10:46:23;18.20;99.90
17992;DHT22;9121;50.926;5.340;2022-10-16T10:49:07;18.10;99.90
17992;DHT22;9121;50.926;5.340;2022-10-16T10:51:42;18.10;99.90
17992;DHT22;9121;50.926;5.340;2022-10-16T10:54:16;18.00;99.90
17992;DHT22;9121;50.926;5.340;2022-10-16T10:56:49;18.20;99.90
17992;DHT22;9121;50.926;5.340;2022-10-16T10:59:35;18.30;99.90
17992;DHT22;9121;50.926;5.340;2022-10-16T11:02:13;18.30;99.90
17992;DHT22;9121;50.926;5.340;2022-10-16T11:07:49;18.30;99.90
17992;DHT22;9121;50.926;5.340;2022-10-16T11:10:21;18.40;99.90
17992;DHT22;9121;50.926;5.340;2022-10-16T11:12:52;18.50;99.90
17992;DHT22;9121;50.926;5.340;2022-10-16T11:15:24;18.70;99.90
17992;DHT22;9121;50.926;5.340;2022-10-16T11:17:54;18.80;99.90
17992;DHT22;9121;50.926;5.340;2022-10-16T11:20:26;19.00;99.90
17992;DHT22;9121;50.926;5.340;2022-10-16T11:22:58;19.00;99.90
17992;DHT22;9121;50.926;5.340;2022-10-16T11:25:28;19.00;99.90
17992;DHT22;9121;50.926;5.340;2022-10-16T11:28:01;19.00;99.90
17992;DHT22;9121;50.926;5.340;2022-10-16T11:30:30;18.80;99.90
17992;DHT22;9121;50.926;5.340;2022-10-16T11:33:08;18.90;99.90
17992;DHT22;9121;50.926;5.340;2022-10-16T11:35:43;19.10;99.90
17992;DHT22;9121;50.926;5.340;2022-10-16T11:38:26;19.30;99.90
17992;DHT22;9121;50.926;5.340;2022-10-16T11:40:58;19.50;99.90
17992;DHT22;9121;50.926;5.340;2022-10-16T11:43:31;19.50;99.90
17992;DHT22;9121;50.926;5.340;2022-10-16T11:46:03;19.20;99.90
17992;DHT22;9121;50.926;5.340;2022-10-16T11:48:35;19.20;99.90
17992;DHT22;9121;50.926;5.340;2022-10-16T11:51:08;19.30;99.90
17992;DHT22;9121;50.926;5.340;2022-10-16T11:53:45;19.50;99.90
17992;DHT22;9121;50.926;5.340;2022-10-16T11:56:15;19.80;99.90
17992;DHT22;9121;50.926;5.340;2022-10-16T11:58:52;20.00;99.90
17992;DHT22;9121;50.926;5.340;2022-10-16T12:01:22;19.90;99.90
17992;DHT22;9121;50.926;5.340;2022-10-16T12:04:06;19.80;99.90
17992;DHT22;9121;50.926;5.340;2022-10-16T12:06:42;19.70;99.90
17992;DHT22;9121;50.926;5.340;2022-10-16T12:09:17;19.80;99.90
17992;DHT22;9121;50.926;5.340;2022-10-16T12:11:47;20.00;99.90
17992;DHT22;9121;50.926;5.340;2022-10-16T12:14:32;20.20;99.90
17992;DHT22;9121;50.926;5.340;2022-10-16T12:17:01;20.30;99.90
17992;DHT22;9121;50.926;5.340;2022-10-16T12:19:31;20.40;99.90
17992;DHT22;9121;50.926;5.340;2022-10-16T12:21:59;20.40;99.90
17992;DHT22;9121;50.926;5.340;2022-10-16T12:24:36;20.30;99.90
17992;DHT22;9121;50.926;5.340;2022-10-16T12:27:06;20.30;99.90
17992;DHT22;9121;50.926;5.340;2022-10-16T12:29:36;20.30;99.90
17992;DHT22;9121;50.926;5.340;2022-10-16T12:32:05;20.40;99.90
17992;DHT22;9121;50.926;5.340;2022-10-16T12:34:38;20.60;99.90
17992;DHT22;9121;50.926;5.340;2022-10-16T12:37:13;20.70;99.90
17992;DHT22;9121;50.926;5.340;2022-10-16T12:39:42;20.80;99.90
17992;DHT22;9121;50.926;5.340;2022-10-16T12:42:32;20.70;99.90
17992;DHT22;9121;50.926;5.340;2022-10-16T12:45:00;20.70;99.90
17992;DHT22;9121;50.926;5.340;2022-10-16T12:47:47;20.80;99.90
17992;DHT22;9121;50.926;5.340;2022-10-16T12:50:30;20.70;99.90
17992;DHT22;9121;50.926;5.340;2022-10-16T12:52:58;20.70;99.90
17992;DHT22;9121;50.926;5.340;2022-10-16T12:55:26;20.60;99.90
17992;DHT22;9121;50.926;5.340;2022-10-16T12:58:09;20.60;99.90
17992;DHT22;9121;50.926;5.340;2022-10-16T13:00:44;20.40;99.90
17992;DHT22;9121;50.926;5.340;2022-10-16T13:03:45;20.30;99.90
17992;DHT22;9121;50.926;5.340;2022-10-16T13:06:26;20.20;99.90
17992;DHT22;9121;50.926;5.340;2022-10-16T13:09:20;20.10;99.90
17992;DHT22;9121;50.926;5.340;2022-10-16T13:12:08;20.10;99.90
17992;DHT22;9121;50.926;5.340;2022-10-16T13:14:58;20.00;99.90
17992;DHT22;9121;50.926;5.340;2022-10-16T13:17:32;20.00;99.90
17992;DHT22;9121;50.926;5.340;2022-10-16T13:20:09;20.10;99.90
17992;DHT22;9121;50.926;5.340;2022-10-16T13:22:42;20.00;99.90
17992;DHT22;9121;50.926;5.340;2022-10-16T13:25:23;20.00;99.90
17992;DHT22;9121;50.926;5.340;2022-10-16T13:27:59;20.00;99.90
17992;DHT22;9121;50.926;5.340;2022-10-16T13:30:28;19.90;99.90
17992;DHT22;9121;50.926;5.340;2022-10-16T13:33:01;19.80;99.90
17992;DHT22;9121;50.926;5.340;2022-10-16T13:35:30;19.80;99.90
17992;DHT22;9121;50.926;5.340;2022-10-16T13:38:13;19.80;99.90
17992;DHT22;9121;50.926;5.340;2022-10-16T13:40:54;19.80;99.90
17992;DHT22;9121;50.926;5.340;2022-10-16T13:43:26;19.80;99.90
17992;DHT22;9121;50.926;5.340;2022-10-16T13:45:56;19.80;99.90
17992;DHT22;9121;50.926;5.340;2022-10-16T13:48:23;19.90;99.90
17992;DHT22;9121;50.926;5.340;2022-10-16T13:51:02;19.90;99.90
17992;DHT22;9121;50.926;5.340;2022-10-16T13:53:31;19.80;99.90
17992;DHT22;9121;50.926;5.340;2022-10-16T13:55:59;19.80;99.90
17992;DHT22;9121;50.926;5.340;2022-10-16T13:58:28;19.80;99.90
17992;DHT22;9121;50.926;5.340;2022-10-16T14:00:57;19.90;99.90
17992;DHT22;9121;50.926;5.340;2022-10-16T14:03:25;19.80;99.90
17992;DHT22;9121;50.926;5.340;2022-10-16T14:05:55;19.80;99.90
17992;DHT22;9121;50.926;5.340;2022-10-16T14:08:23;19.80;99.90
17992;DHT22;9121;50.926;5.340;2022-10-16T14:10:53;19.90;99.90
17992;DHT22;9121;50.926;5.340;2022-10-16T14:13:31;20.00;99.90
17992;DHT22;9121;50.926;5.340;2022-10-16T14:16:04;20.10;99.90
17992;DHT22;9121;50.926;5.340;2022-10-16T14:18:33;20.10;99.90
17992;DHT22;9121;50.926;5.340;2022-10-16T14:21:04;20.00;99.90
17992;DHT22;9121;50.926;5.340;2022-10-16T14:23:35;20.00;99.90
17992;DHT22;9121;50.926;5.340;2022-10-16T14:26:17;19.90;99.90
17992;DHT22;9121;50.926;5.340;2022-10-16T14:28:46;19.80;99.90
17992;DHT22;9121;50.926;5.340;2022-10-16T14:31:29;19.60;99.90
17992;DHT22;9121;50.926;5.340;2022-10-16T14:33:59;19.50;99.90
17992;DHT22;9121;50.926;5.340;2022-10-16T14:36:27;19.40;99.90
17992;DHT22;9121;50.926;5.340;2022-10-16T14:38:59;19.30;99.90
17992;DHT22;9121;50.926;5.340;2022-10-16T14:41:27;19.30;99.90
17992;DHT22;9121;50.926;5.340;2022-10-16T14:43:57;19.20;99.90
17992;DHT22;9121;50.926;5.340;2022-10-16T14:46:31;19.30;99.90
17992;DHT22;9121;50.926;5.340;2022-10-16T14:49:02;19.30;99.90
17992;DHT22;9121;50.926;5.340;2022-10-16T14:51:30;19.30;99.90
17992;DHT22;9121;50.926;5.340;2022-10-16T14:53:57;19.30;99.90
17992;DHT22;9121;50.926;5.340;2022-10-16T14:56:27;19.20;99.90
17992;DHT22;9121;50.926;5.340;2022-10-16T14:58:56;19.30;99.90
17992;DHT22;9121;50.926;5.340;2022-10-16T15:01:24;19.20;99.90
17992;DHT22;9121;50.926;5.340;2022-10-16T15:03:51;19.30;99.90
17992;DHT22;9121;50.926;5.340;2022-10-16T15:06:20;19.30;99.90
17992;DHT22;9121;50.926;5.340;2022-10-16T15:08:47;19.30;99.90
17992;DHT22;9121;50.926;5.340;2022-10-16T15:11:16;19.30;99.90
17992;DHT22;9121;50.926;5.340;2022-10-16T15:13:44;19.30;99.90
17992;DHT22;9121;50.926;5.340;2022-10-16T15:16:14;19.40;99.90
17992;DHT22;9121;50.926;5.340;2022-10-16T15:18:41;19.40;99.90
17992;DHT22;9121;50.926;5.340;2022-10-16T15:21:09;19.40;99.90
17992;DHT22;9121;50.926;5.340;2022-10-16T15:23:37;19.40;99.90
17992;DHT22;9121;50.926;5.340;2022-10-16T15:26:04;19.40;99.90
17992;DHT22;9121;50.926;5.340;2022-10-16T15:28:31;19.20;99.90
17992;DHT22;9121;50.926;5.340;2022-10-16T15:30:58;19.10;99.90
17992;DHT22;9121;50.926;5.340;2022-10-16T15:33:27;19.00;99.90
17992;DHT22;9121;50.926;5.340;2022-10-16T15:35:58;18.90;99.90
17992;DHT22;9121;50.926;5.340;2022-10-16T15:38:26;18.90;99.90
17992;DHT22;9121;50.926;5.340;2022-10-16T15:40:54;18.80;99.90
17992;DHT22;9121;50.926;5.340;2022-10-16T15:43:21;18.70;99.90
17992;DHT22;9121;50.926;5.340;2022-10-16T15:45:59;18.70;99.90
17992;DHT22;9121;50.926;5.340;2022-10-16T15:48:28;18.70;99.90
17992;DHT22;9121;50.926;5.340;2022-10-16T15:50:55;18.60;99.90
17992;DHT22;9121;50.926;5.340;2022-10-16T15:53:22;18.60;99.90
17992;DHT22;9121;50.926;5.340;2022-10-16T15:55:49;18.60;99.90
17992;DHT22;9121;50.926;5.340;2022-10-16T15:58:16;18.50;99.90
17992;DHT22;9121;50.926;5.340;2022-10-16T16:00:43;18.50;99.90
17992;DHT22;9121;50.926;5.340;2022-10-16T16:03:11;18.40;99.90
17992;DHT22;9121;50.926;5.340;2022-10-16T16:05:39;18.40;99.90
17992;DHT22;9121;50.926;5.340;2022-10-16T16:08:06;18.40;99.90